Time;durP1;ratioP1;P1;durP2;ratioP2;P2;SDS_P1;SDS_P2;PMS_P1;PMS_P2;Temp;Humidity;BMP_temperature;BMP_pressure;BME280_temperature;BME280_humidity;BME280_pressure;Samples;Min_cycle;Max_cycle;Signal;HPM_P1;HPM_P2
2023/12/27 00:01:34;;;;;;;20.42;6.80;;;14.20;99.90;;;;;;7380227;19;20063;-74
2023/12/27 00:04:03;;;;;;;19.30;7.03;;;14.10;99.90;;;;;;7380027;19;20019;-75
2023/12/27 00:06:32;;;;;;;23.15;7.30;;;14.10;99.90;;;;;;7379687;19;20013;-74
2023/12/27 00:09:00;;;;;;;28.30;7.55;;;14.10;99.90;;;;;;7379902;19;20039;-74
2023/12/27 00:11:29;;;;;;;16.73;6.35;;;14.00;99.90;;;;;;7404158;19;20541;-74
2023/12/27 00:14:00;;;;;;;14.27;6.75;;;14.00;99.90;;;;;;7379368;19;20110;-75
2023/12/27 00:16:29;;;;;;;13.88;6.82;;;14.00;99.90;;;;;;7379806;19;20075;-74
2023/12/27 00:18:58;;;;;;;17.10;6.68;;;14.00;99.90;;;;;;7380323;19;20019;-74
2023/12/27 00:21:27;;;;;;;22.60;7.22;;;14.10;99.90;;;;;;7379874;19;20023;-75
2023/12/27 00:23:56;;;;;;;19.92;6.90;;;14.10;99.90;;;;;;7382487;19;20042;-75
2023/12/27 00:26:25;;;;;;;19.23;7.68;;;14.20;99.90;;;;;;7406393;19;20010;-74
2023/12/27 00:28:53;;;;;;;19.05;6.75;;;14.20;99.90;;;;;;7384791;19;20014;-75
2023/12/27 00:31:25;;;;;;;13.45;6.70;;;14.20;99.90;;;;;;7386914;19;20276;-75
2023/12/27 00:33:55;;;;;;;19.83;7.20;;;14.20;99.90;;;;;;7384959;19;20016;-75
2023/12/27 00:36:29;;;;;;;17.80;6.68;;;14.20;99.90;;;;;;7379834;19;20086;-74
2023/12/27 00:38:58;;;;;;;19.63;7.10;;;14.30;99.90;;;;;;7379556;19;20011;-75
2023/12/27 00:41:26;;;;;;;13.65;6.50;;;14.30;99.90;;;;;;7400422;19;20070;-74
2023/12/27 00:43:55;;;;;;;17.70;6.35;;;14.30;99.90;;;;;;7377420;19;20006;-77
2023/12/27 00:46:26;;;;;;;23.73;6.47;;;14.30;99.90;;;;;;7379005;19;20020;-74
2023/12/27 00:48:55;;;;;;;23.23;6.57;;;14.30;99.90;;;;;;7378030;19;20267;-75
2023/12/27 00:51:23;;;;;;;14.30;6.88;;;14.30;99.90;;;;;;7379003;19;20066;-75
2023/12/27 00:53:53;;;;;;;15.18;6.63;;;14.40;99.90;;;;;;7400247;19;20023;-75
2023/12/27 00:56:22;;;;;;;22.73;6.88;;;14.40;99.90;;;;;;7378636;19;19999;-75
2023/12/27 00:58:53;;;;;;;20.05;6.80;;;14.40;99.90;;;;;;7378251;19;20042;-76
2023/12/27 01:01:22;;;;;;;24.38;7.15;;;14.30;99.90;;;;;;7378520;19;20488;-75
2023/12/27 01:03:54;;;;;;;10.88;5.90;;;14.30;99.90;;;;;;7378941;19;20002;-75
2023/12/27 01:06:22;;;;;;;17.17;6.55;;;14.40;99.90;;;;;;7379110;19;20576;-75
2023/12/27 01:08:51;;;;;;;18.80;7.30;;;14.40;99.90;;;;;;7398622;19;20098;-75
2023/12/27 01:11:22;;;;;;;23.73;6.70;;;14.30;99.90;;;;;;7377689;19;20067;-75
2023/12/27 01:13:52;;;;;;;18.67;6.70;;;14.30;99.90;;;;;;7378225;19;20006;-75
2023/12/27 01:16:20;;;;;;;14.40;5.90;;;14.30;99.90;;;;;;7378039;19;20051;-75
2023/12/27 01:18:49;;;;;;;16.58;6.35;;;14.40;99.90;;;;;;7377843;19;20459;-75
2023/12/27 01:21:21;;;;;;;20.23;6.85;;;14.30;99.90;;;;;;7378227;19;20405;-74
2023/12/27 01:23:50;;;;;;;19.13;6.78;;;14.40;99.90;;;;;;7399635;19;20397;-74
2023/12/27 01:26:19;;;;;;;16.27;6.82;;;14.40;99.90;;;;;;7377226;19;20009;-74
2023/12/27 01:28:47;;;;;;;17.35;7.03;;;14.40;99.90;;;;;;7375844;19;20007;-74
2023/12/27 01:31:16;;;;;;;22.85;7.05;;;14.40;99.90;;;;;;7377589;19;20329;-75
2023/12/27 01:33:47;;;;;;;13.20;6.38;;;14.40;99.90;;;;;;7377684;19;20043;-75
2023/12/27 01:36:16;;;;;;;20.05;7.07;;;14.30;99.90;;;;;;7378304;19;20499;-74
2023/12/27 01:38:47;;;;;;;11.57;5.80;;;14.30;99.90;;;;;;7406918;19;20010;-74
2023/12/27 01:41:16;;;;;;;12.55;5.93;;;14.30;99.90;;;;;;7384299;19;20003;-75
2023/12/27 01:43:44;;;;;;;15.10;6.05;;;14.20;99.90;;;;;;7384502;19;20333;-74
2023/12/27 01:46:14;;;;;;;15.75;6.38;;;14.20;99.90;;;;;;7384963;19;20062;-75
2023/12/27 01:48:44;;;;;;;18.90;6.22;;;14.20;99.90;;;;;;7383575;19;20006;-74
2023/12/27 01:51:14;;;;;;;13.30;5.80;;;14.20;99.90;;;;;;7385146;19;20059;-75
2023/12/27 01:53:43;;;;;;;14.18;6.05;;;14.20;99.90;;;;;;7405819;19;20413;-75
2023/12/27 01:56:14;;;;;;;23.00;6.15;;;14.20;99.90;;;;;;7384186;19;20373;-75
2023/12/27 01:58:43;;;;;;;15.35;5.53;;;14.20;99.90;;;;;;7384625;19;20080;-74
2023/12/27 02:01:12;;;;;;;21.50;5.75;;;14.30;99.90;;;;;;7384334;19;20697;-74
2023/12/27 02:03:43;;;;;;;15.80;5.40;;;14.20;99.90;;;;;;7386336;19;20006;-75
2023/12/27 02:06:13;;;;;;;9.98;5.28;;;14.20;99.90;;;;;;7384298;19;20062;-75
2023/12/27 02:08:42;;;;;;;19.88;5.90;;;14.20;99.90;;;;;;7403579;19;20305;-74
2023/12/27 02:11:13;;;;;;;16.85;5.53;;;14.30;99.90;;;;;;7383060;19;20006;-74
2023/12/27 02:13:43;;;;;;;14.93;5.20;;;14.30;99.90;;;;;;7384324;19;20078;-75
2023/12/27 02:16:13;;;;;;;13.82;5.18;;;14.20;99.90;;;;;;7382923;19;20003;-76
2023/12/27 02:18:42;;;;;;;13.70;5.75;;;14.30;99.90;;;;;;7383658;19;20353;-74
2023/12/27 02:21:11;;;;;;;11.75;5.22;;;14.20;99.90;;;;;;7380824;19;20464;-75
2023/12/27 02:23:41;;;;;;;14.50;5.30;;;14.20;99.90;;;;;;7406188;19;20015;-75
2023/12/27 02:26:13;;;;;;;15.15;5.28;;;14.20;99.90;;;;;;7385501;19;20011;-75
2023/12/27 02:28:43;;;;;;;18.70;4.78;;;14.30;99.90;;;;;;7388830;19;20062;-75
2023/12/27 02:31:13;;;;;;;15.38;5.43;;;14.20;99.90;;;;;;7388799;19;20089;-75
2023/12/27 02:33:45;;;;;;;14.85;5.20;;;14.20;99.90;;;;;;7386824;19;20099;-75
2023/12/27 02:36:14;;;;;;;14.45;5.25;;;14.20;99.90;;;;;;7384194;19;20009;-75
2023/12/27 02:38:43;;;;;;;13.63;4.55;;;14.20;99.90;;;;;;7404837;19;20013;-74
2023/12/27 02:41:14;;;;;;;15.35;5.10;;;14.20;99.90;;;;;;7382682;19;20062;-75
2023/12/27 02:43:45;;;;;;;18.48;5.45;;;14.20;99.90;;;;;;7382981;19;20227;-75
2023/12/27 02:46:13;;;;;;;11.05;5.05;;;14.20;99.90;;;;;;7382944;19;20059;-75
2023/12/27 02:48:42;;;;;;;11.02;5.00;;;14.20;99.90;;;;;;7380999;19;20357;-75
2023/12/27 02:51:11;;;;;;;14.55;5.38;;;14.20;99.90;;;;;;7382478;19;20015;-74
2023/12/27 02:53:39;;;;;;;14.75;4.75;;;14.20;99.90;;;;;;7403730;19;20066;-75
2023/12/27 02:56:10;;;;;;;11.20;5.35;;;14.20;99.90;;;;;;7382223;19;20074;-74
2023/12/27 02:58:43;;;;;;;14.40;5.05;;;14.20;99.90;;;;;;7382718;19;20070;-74
2023/12/27 03:01:12;;;;;;;14.60;4.93;;;14.00;99.90;;;;;;7382945;19;20011;-74
2023/12/27 03:03:42;;;;;;;14.02;4.90;;;13.90;99.90;;;;;;7383201;19;20010;-74
2023/12/27 03:06:11;;;;;;;15.60;4.43;;;13.90;99.90;;;;;;7383292;19;20024;-76
2023/12/27 03:08:42;;;;;;;19.48;4.50;;;13.90;99.90;;;;;;7403597;19;20074;-74
2023/12/27 03:11:11;;;;;;;12.30;4.38;;;13.80;99.90;;;;;;7381613;19;20007;-73
2023/12/27 03:13:43;;;;;;;10.95;4.18;;;13.90;99.90;;;;;;7384066;19;20002;-74
2023/12/27 03:16:11;;;;;;;19.33;3.88;;;13.80;99.90;;;;;;7381661;19;20011;-74
2023/12/27 03:18:41;;;;;;;16.85;4.05;;;13.90;99.90;;;;;;7385486;19;20023;-73
2023/12/27 03:21:10;;;;;;;7.85;4.15;;;13.90;99.90;;;;;;7382669;19;20062;-74
2023/12/27 03:23:39;;;;;;;9.70;4.70;;;14.00;99.90;;;;;;7403007;19;20019;-74
2023/12/27 03:26:07;;;;;;;8.65;4.20;;;14.00;99.90;;;;;;7381137;19;20063;-75
2023/12/27 03:28:36;;;;;;;12.23;3.95;;;13.90;99.90;;;;;;7380421;19;20006;-75
2023/12/27 03:31:07;;;;;;;7.60;4.00;;;14.00;99.90;;;;;;7381747;19;20010;-74
2023/12/27 03:33:36;;;;;;;16.73;4.65;;;14.00;99.90;;;;;;7383016;19;20029;-74
2023/12/27 03:36:05;;;;;;;17.38;4.38;;;14.00;99.90;;;;;;7403242;19;20011;-75
2023/12/27 03:38:34;;;;;;;9.93;3.92;;;14.00;99.90;;;;;;7380168;19;20075;-75
2023/12/27 03:41:02;;;;;;;6.97;3.97;;;14.00;99.90;;;;;;7380757;19;20253;-75
2023/12/27 03:43:31;;;;;;;11.35;3.67;;;14.00;99.90;;;;;;7381027;19;20002;-75
2023/12/27 03:46:01;;;;;;;11.68;4.50;;;14.00;99.90;;;;;;7381182;19;20054;-74
2023/12/27 03:48:33;;;;;;;11.20;3.60;;;14.00;99.90;;;;;;7381293;19;20091;-75
2023/12/27 03:51:01;;;;;;;11.65;4.22;;;14.00;99.90;;;;;;7402814;19;20007;-76
2023/12/27 03:53:33;;;;;;;12.23;4.28;;;14.00;99.90;;;;;;7380133;19;20014;-74
2023/12/27 03:56:02;;;;;;;20.50;4.60;;;14.00;99.90;;;;;;7382359;19;20095;-75
2023/12/27 03:58:32;;;;;;;19.55;4.68;;;14.00;99.90;;;;;;7380527;19;20067;-74
2023/12/27 04:01:00;;;;;;;11.15;4.00;;;13.90;99.90;;;;;;7378898;19;20270;-74
2023/12/27 04:03:32;;;;;;;9.77;4.10;;;13.90;99.90;;;;;;7380412;19;20015;-73
2023/12/27 04:06:03;;;;;;;14.00;4.47;;;13.70;99.90;;;;;;7401960;19;20014;-74
2023/12/27 04:08:32;;;;;;;8.40;4.30;;;13.80;99.90;;;;;;7378677;19;20073;-74
2023/12/27 04:11:01;;;;;;;20.27;4.47;;;13.90;99.90;;;;;;7380020;19;20010;-74
2023/12/27 04:13:29;;;;;;;10.65;4.38;;;13.80;99.90;;;;;;7378867;19;20011;-74
2023/12/27 04:15:58;;;;;;;15.77;4.72;;;13.80;99.90;;;;;;7379194;19;20109;-75
2023/12/27 04:18:32;;;;;;;9.85;4.00;;;13.80;99.90;;;;;;7380069;19;20082;-73
2023/12/27 04:21:01;;;;;;;11.40;4.20;;;13.80;99.90;;;;;;7405966;19;20007;-74
2023/12/27 04:23:29;;;;;;;17.25;4.53;;;13.90;99.90;;;;;;7379098;19;20002;-73
2023/12/27 04:25:58;;;;;;;11.70;3.92;;;13.90;99.90;;;;;;7382380;19;20247;-74
2023/12/27 04:28:28;;;;;;;16.40;3.63;;;13.90;99.90;;;;;;7381332;19;20019;-74
2023/12/27 04:30:57;;;;;;;13.82;4.13;;;13.90;99.90;;;;;;7386190;19;20019;-75
2023/12/27 04:33:25;;;;;;;14.50;4.40;;;14.00;99.90;;;;;;7386211;19;20024;-75
2023/12/27 04:35:56;;;;;;;8.05;3.60;;;14.00;99.90;;;;;;7406597;19;20010;-75
2023/12/27 04:38:25;;;;;;;10.23;3.97;;;14.10;99.90;;;;;;7386578;19;20032;-74
2023/12/27 04:40:55;;;;;;;12.18;4.20;;;14.10;99.90;;;;;;7378309;19;20006;-75
2023/12/27 04:43:23;;;;;;;13.05;4.25;;;14.10;99.90;;;;;;7379790;19;20024;-75
2023/12/27 04:45:52;;;;;;;13.18;4.25;;;14.10;99.90;;;;;;7379758;19;20014;-74
2023/12/27 04:48:21;;;;;;;9.95;3.75;;;14.00;99.90;;;;;;7384260;19;20062;-75
2023/12/27 04:50:49;;;;;;;14.57;3.63;;;14.00;99.90;;;;;;7400586;19;20074;-75
2023/12/27 04:53:21;;;;;;;22.00;4.15;;;14.00;99.90;;;;;;7378538;19;20381;-75
2023/12/27 04:55:49;;;;;;;10.90;3.75;;;14.00;99.90;;;;;;7378816;19;20016;-74
2023/12/27 04:58:18;;;;;;;15.50;4.80;;;14.00;99.90;;;;;;7378641;19;20078;-75
2023/12/27 05:00:47;;;;;;;10.82;3.70;;;14.00;99.90;;;;;;7378995;19;20011;-75
2023/12/27 05:03:16;;;;;;;13.43;3.88;;;14.10;99.90;;;;;;7399786;19;20285;-74
2023/12/27 05:05:44;;;;;;;12.68;4.10;;;14.10;99.90;;;;;;7377778;19;20090;-74
2023/12/27 05:08:13;;;;;;;9.55;3.50;;;14.10;99.90;;;;;;7377168;19;20015;-74
2023/12/27 05:10:44;;;;;;;11.63;3.80;;;14.10;99.90;;;;;;7377940;19;20006;-75
2023/12/27 05:13:13;;;;;;;;;;;14.00;99.90;;;;;;7378050;19;20081;-75
2023/12/27 05:15:43;;;;;;;13.40;3.35;;;13.90;99.90;;;;;;7377024;19;19942;-74
2023/12/27 05:18:12;;;;;;;13.15;4.28;;;13.90;99.90;;;;;;7399459;19;20226;-74
2023/12/27 05:20:43;;;;;;;14.18;3.70;;;13.90;99.90;;;;;;7379236;19;20416;-74
2023/12/27 05:23:11;;;;;;;12.32;3.88;;;13.90;99.90;;;;;;7380470;19;20066;-74
2023/12/27 05:25:42;;;;;;;16.17;4.10;;;13.90;99.90;;;;;;7378377;19;20070;-75
2023/12/27 05:28:14;;;;;;;10.88;3.25;;;13.80;99.90;;;;;;7384271;19;20010;-74
2023/12/27 05:30:42;;;;;;;11.07;3.63;;;13.60;99.90;;;;;;7378661;19;20288;-76
2023/12/27 05:33:11;;;;;;;13.27;3.97;;;13.50;99.90;;;;;;7403127;19;20020;-75
2023/12/27 05:35:40;;;;;;;11.15;3.53;;;13.40;99.90;;;;;;7377492;19;20066;-75
2023/12/27 05:38:08;;;;;;;7.10;3.53;;;13.60;99.90;;;;;;7377462;19;20075;-75
2023/12/27 05:40:37;;;;;;;13.25;3.50;;;13.60;99.90;;;;;;7377536;19;20102;-73
2023/12/27 05:43:06;;;;;;;13.68;3.60;;;13.60;99.90;;;;;;7377699;19;20370;-74
2023/12/27 05:45:37;;;;;;;11.88;3.28;;;13.60;99.90;;;;;;7380412;19;20070;-75
2023/12/27 05:48:07;;;;;;;13.05;3.83;;;13.60;99.90;;;;;;7400008;19;20074;-74
2023/12/27 05:50:36;;;;;;;10.00;3.38;;;13.70;99.90;;;;;;7379755;19;20070;-74
2023/12/27 05:53:05;;;;;;;11.13;3.83;;;13.70;99.90;;;;;;7377316;19;20007;-75
2023/12/27 05:55:34;;;;;;;16.30;4.18;;;13.70;99.90;;;;;;7376307;19;20007;-75
2023/12/27 05:58:07;;;;;;;12.45;4.10;;;13.80;99.90;;;;;;7375809;19;20407;-75
2023/12/27 06:00:39;;;;;;;18.75;3.97;;;13.80;99.90;;;;;;7377158;19;20064;-76
2023/12/27 06:03:08;;;;;;;8.48;3.13;;;13.70;99.90;;;;;;7398554;19;20011;-76
2023/12/27 06:05:36;;;;;;;6.18;3.17;;;13.70;99.90;;;;;;7376467;19;20030;-75
2023/12/27 06:08:06;;;;;;;11.25;3.42;;;13.70;99.90;;;;;;7376464;19;20011;-75
2023/12/27 06:10:36;;;;;;;17.90;3.95;;;13.70;99.90;;;;;;7375946;19;20064;-75
2023/12/27 06:13:06;;;;;;;12.82;3.47;;;13.60;99.90;;;;;;7376963;19;20066;-75
2023/12/27 06:15:34;;;;;;;11.07;3.20;;;13.60;99.90;;;;;;7374913;19;20014;-75
2023/12/27 06:18:08;;;;;;;13.38;3.67;;;13.60;99.90;;;;;;7398100;19;20010;-75
2023/12/27 06:20:37;;;;;;;11.27;3.45;;;13.50;99.90;;;;;;7375212;19;20027;-75
2023/12/27 06:23:06;;;;;;;13.75;3.78;;;13.40;99.90;;;;;;7378522;19;20099;-75
2023/12/27 06:25:35;;;;;;;12.73;3.67;;;13.30;99.90;;;;;;7380498;19;19999;-76
2023/12/27 06:28:04;;;;;;;14.82;4.13;;;13.30;99.90;;;;;;7383679;19;20063;-75
2023/12/27 06:30:33;;;;;;;9.00;3.60;;;13.10;99.90;;;;;;7389731;19;20302;-75
2023/12/27 06:33:01;;;;;;;13.85;3.70;;;13.10;99.90;;;;;;7410940;19;20006;-76
2023/12/27 06:35:32;;;;;;;11.88;3.90;;;13.20;99.90;;;;;;7390209;19;20020;-75
2023/12/27 06:38:02;;;;;;;15.02;3.58;;;13.20;99.90;;;;;;7389695;19;20023;-75
2023/12/27 06:40:31;;;;;;;21.02;4.10;;;13.30;99.90;;;;;;7390134;19;20042;-75
2023/12/27 06:43:00;;;;;;;19.88;4.28;;;13.30;99.90;;;;;;7384739;19;20390;-77
2023/12/27 06:45:28;;;;;;;15.05;3.55;;;13.30;99.90;;;;;;7408358;19;20007;-75
2023/12/27 06:47:57;;;;;;;14.80;3.63;;;13.30;99.90;;;;;;7382431;19;20350;-75
2023/12/27 06:50:27;;;;;;;11.00;3.83;;;13.30;99.90;;;;;;7380258;19;20246;-76
2023/12/27 06:52:58;;;;;;;7.85;3.33;;;13.30;99.90;;;;;;7382655;19;20025;-75
2023/12/27 06:55:27;;;;;;;14.18;3.50;;;13.30;99.90;;;;;;7382509;19;20010;-75
2023/12/27 06:57:56;;;;;;;16.63;4.00;;;13.20;99.90;;;;;;7381519;19;20212;-75
2023/12/27 07:00:26;;;;;;;10.60;3.30;;;13.10;99.90;;;;;;7404152;19;20018;-75
2023/12/27 07:02:54;;;;;;;12.07;3.97;;;13.10;99.90;;;;;;7381913;19;20003;-75
2023/12/27 07:05:23;;;;;;;12.23;3.45;;;13.10;99.90;;;;;;7382362;19;20432;-75
2023/12/27 07:07:52;;;;;;;6.47;3.20;;;13.20;99.90;;;;;;7381453;19;19999;-75
2023/12/27 07:10:23;;;;;;;16.25;3.92;;;13.10;99.90;;;;;;7381586;19;20067;-75
2023/12/27 07:12:52;;;;;;;8.40;3.35;;;13.20;99.90;;;;;;7382288;19;20010;-75
2023/12/27 07:15:21;;;;;;;10.07;3.53;;;12.90;99.90;;;;;;7402151;19;20050;-75
2023/12/27 07:17:50;;;;;;;15.98;4.10;;;12.90;99.90;;;;;;7381425;19;20051;-75
2023/12/27 07:20:19;;;;;;;17.58;3.72;;;12.90;99.90;;;;;;7382114;19;20003;-75
2023/12/27 07:22:48;;;;;;;11.95;4.28;;;13.00;99.90;;;;;;7382699;19;20002;-75
2023/12/27 07:25:17;;;;;;;19.27;4.15;;;13.00;99.90;;;;;;7381957;19;20007;-74
2023/12/27 07:27:48;;;;;;;18.10;4.28;;;13.00;99.90;;;;;;7381669;19;20015;-75
2023/12/27 07:30:18;;;;;;;12.15;3.58;;;12.90;99.90;;;;;;7401986;19;20066;-76
2023/12/27 07:32:48;;;;;;;15.30;3.55;;;13.00;99.90;;;;;;7381061;19;20003;-75
2023/12/27 07:35:17;;;;;;;14.43;3.70;;;13.00;99.90;;;;;;7381289;19;20007;-75
2023/12/27 07:37:46;;;;;;;14.95;3.50;;;13.00;99.90;;;;;;7381370;19;20071;-75
2023/12/27 07:40:16;;;;;;;9.80;3.60;;;12.60;99.90;;;;;;7381615;19;20224;-76
2023/12/27 07:42:45;;;;;;;13.30;3.47;;;12.80;99.90;;;;;;7380689;19;20010;-76
2023/12/27 07:45:16;;;;;;;15.55;3.70;;;12.90;99.90;;;;;;7402115;19;20300;-75
2023/12/27 07:47:45;;;;;;;13.57;3.42;;;13.00;99.90;;;;;;7380169;19;20007;-75
2023/12/27 07:50:16;;;;;;;23.63;4.05;;;13.00;99.90;;;;;;7379722;19;20007;-75
2023/12/27 07:52:44;;;;;;;18.42;4.05;;;13.00;99.90;;;;;;7380717;19;20105;-75
2023/12/27 07:55:14;;;;;;;8.70;3.33;;;13.10;99.90;;;;;;7380659;19;20009;-75
2023/12/27 07:57:45;;;;;;;20.98;3.58;;;12.90;99.90;;;;;;7380776;19;20014;-75
2023/12/27 08:00:18;;;;;;;16.83;3.70;;;12.90;99.90;;;;;;7401645;19;20010;-76
2023/12/27 08:02:49;;;;;;;7.32;3.72;;;12.90;99.90;;;;;;7379597;19;20006;-75
2023/12/27 08:05:18;;;;;;;11.60;3.92;;;12.90;99.90;;;;;;7380596;19;20401;-74
2023/12/27 08:07:47;;;;;;;9.75;3.22;;;12.90;99.90;;;;;;7379533;19;20007;-76
2023/12/27 08:10:18;;;;;;;14.18;3.67;;;13.00;99.90;;;;;;7380022;19;20074;-76
2023/12/27 08:12:47;;;;;;;14.63;3.30;;;13.00;99.90;;;;;;7380546;19;20256;-76
2023/12/27 08:15:19;;;;;;;15.10;4.00;;;13.00;99.90;;;;;;7400149;19;20396;-76
2023/12/27 08:17:47;;;;;;;;;;;13.00;99.90;;;;;;7380580;19;20249;-75
2023/12/27 08:20:16;;;;;;;12.00;3.33;;;13.00;99.90;;;;;;7379727;19;19907;-76
2023/12/27 08:22:46;;;;;;;17.02;3.50;;;13.00;99.90;;;;;;7381745;19;20010;-76
2023/12/27 08:25:19;;;;;;;12.25;3.63;;;13.10;99.90;;;;;;7387123;19;20007;-77
2023/12/27 08:27:48;;;;;;;9.48;3.78;;;13.10;99.90;;;;;;7392475;19;20010;-76
2023/12/27 08:30:19;;;;;;;16.60;4.18;;;13.10;99.90;;;;;;7401249;19;20028;-77
2023/12/27 08:32:47;;;;;;;;;;;13.10;99.90;;;;;;7384536;19;20007;-77
2023/12/27 08:35:16;;;;;;;10.70;4.00;;;13.00;99.90;;;;;;7380142;19;19914;-75
2023/12/27 08:37:47;;;;;;;10.30;3.88;;;13.00;99.90;;;;;;7387631;19;19999;-77
2023/12/27 08:40:18;;;;;;;17.38;3.78;;;13.00;99.90;;;;;;7389089;19;20019;-76
2023/12/27 08:42:48;;;;;;;11.80;3.70;;;13.00;99.90;;;;;;7401196;19;20006;-75
2023/12/27 08:45:19;;;;;;;9.90;3.58;;;13.00;99.90;;;;;;7405144;19;20006;-74
2023/12/27 08:47:48;;;;;;;11.55;3.58;;;13.00;99.90;;;;;;7379376;19;20019;-76
2023/12/27 08:50:17;;;;;;;14.73;4.18;;;13.00;99.90;;;;;;7378359;19;20409;-75
2023/12/27 08:52:46;;;;;;;9.25;3.65;;;13.00;99.90;;;;;;7378942;19;20317;-75
2023/12/27 08:55:15;;;;;;;16.08;3.83;;;13.00;99.90;;;;;;7378850;19;20019;-74
2023/12/27 08:57:45;;;;;;;9.95;3.58;;;13.00;99.90;;;;;;7400413;19;20018;-75
2023/12/27 09:00:18;;;;;;;11.45;3.88;;;13.00;99.90;;;;;;7377908;19;20385;-75
2023/12/27 09:02:50;;;;;;;15.30;4.32;;;13.10;99.90;;;;;;7377919;19;19998;-74
2023/12/27 09:05:20;;;;;;;9.15;3.38;;;13.10;99.90;;;;;;7378642;19;20017;-75
2023/12/27 09:07:49;;;;;;;18.42;3.58;;;13.10;99.90;;;;;;7379178;19;20016;-75
2023/12/27 09:10:18;;;;;;;19.85;4.03;;;13.10;99.90;;;;;;7378229;19;20437;-75
2023/12/27 09:12:46;;;;;;;18.38;4.18;;;13.10;99.90;;;;;;7400247;19;20305;-76
2023/12/27 09:15:15;;;;;;;11.77;4.20;;;13.10;99.90;;;;;;7377269;19;20020;-76
2023/12/27 09:17:46;;;;;;;12.82;4.10;;;13.10;99.90;;;;;;7377951;19;20551;-75
2023/12/27 09:20:17;;;;;;;7.82;4.10;;;13.10;99.90;;;;;;7378379;19;20238;-76
2023/12/27 09:22:46;;;;;;;12.65;4.20;;;13.10;99.90;;;;;;7378098;19;20062;-75
2023/12/27 09:25:15;;;;;;;9.85;3.80;;;13.10;99.90;;;;;;7378421;19;20074;-75
2023/12/27 09:27:45;;;;;;;13.02;3.95;;;13.10;99.90;;;;;;7399932;19;20071;-75
2023/12/27 09:30:14;;;;;;;13.80;3.50;;;13.20;99.90;;;;;;7376666;19;20366;-76
2023/12/27 09:32:43;;;;;;;11.68;3.72;;;13.20;99.90;;;;;;7377826;19;20090;-76
2023/12/27 09:35:12;;;;;;;15.90;3.85;;;13.20;99.90;;;;;;7378244;19;20042;-75
2023/12/27 09:37:44;;;;;;;12.13;3.70;;;13.30;99.90;;;;;;7377651;19;20011;-75
2023/12/27 09:40:14;;;;;;;15.25;4.07;;;13.30;99.90;;;;;;7377573;19;20087;-75
2023/12/27 09:42:43;;;;;;;12.18;4.10;;;13.30;99.90;;;;;;7398788;19;20011;-75
2023/12/27 09:45:17;;;;;;;21.63;4.72;;;13.40;99.90;;;;;;7376698;19;20265;-75
2023/12/27 09:47:53;;;;;;;20.13;4.38;;;13.40;99.90;;;;;;7376970;19;20007;-75
2023/12/27 09:50:22;;;;;;;13.95;4.05;;;13.50;99.90;;;;;;7377408;19;20030;-75
2023/12/27 09:52:56;;;;;;;12.55;3.92;;;13.60;99.90;;;;;;7377619;19;20003;-75
2023/12/27 09:55:25;;;;;;;10.50;3.83;;;13.60;99.90;;;;;;7377720;19;20006;-76
2023/12/27 09:57:54;;;;;;;11.63;4.07;;;13.70;99.90;;;;;;7400936;19;20007;-75
2023/12/27 10:00:29;;;;;;;18.05;4.15;;;13.70;99.90;;;;;;7384272;19;20011;-76
2023/12/27 10:03:01;;;;;;;9.95;4.15;;;13.70;99.90;;;;;;7383476;19;20418;-76
2023/12/27 10:05:41;;;;;;;12.82;4.30;;;13.70;99.90;;;;;;7384899;19;20067;-75
2023/12/27 10:08:13;;;;;;;11.38;4.20;;;13.80;99.90;;;;;;7384567;19;20009;-74
2023/12/27 10:10:42;;;;;;;15.70;4.47;;;13.80;99.90;;;;;;7382543;19;20066;-75
2023/12/27 10:13:13;;;;;;;11.00;3.65;;;13.80;99.90;;;;;;7385078;19;20079;-75
2023/12/27 10:15:41;;;;;;;8.20;3.55;;;13.90;99.90;;;;;;7404630;19;20023;-76
2023/12/27 10:18:10;;;;;;;8.85;3.53;;;13.90;99.90;;;;;;7383883;19;20011;-75
2023/12/27 10:20:43;;;;;;;9.15;3.20;;;13.90;99.90;;;;;;7383191;19;20012;-75
2023/12/27 10:23:14;;;;;;;10.30;4.03;;;14.00;99.90;;;;;;7384007;19;20003;-75
2023/12/27 10:25:44;;;;;;;13.30;3.80;;;14.00;99.90;;;;;;7384269;19;20003;-75
2023/12/27 10:28:12;;;;;;;13.00;4.38;;;14.10;99.90;;;;;;7383983;19;20003;-76
2023/12/27 10:30:41;;;;;;;7.80;3.38;;;14.10;99.90;;;;;;7408686;19;20027;-74
2023/12/27 10:33:10;;;;;;;11.75;3.47;;;14.00;99.90;;;;;;7382476;19;20023;-75
2023/12/27 10:35:41;;;;;;;13.95;3.30;;;14.00;99.90;;;;;;7383257;19;20077;-76
2023/12/27 10:38:10;;;;;;;9.05;3.40;;;14.00;99.90;;;;;;7391367;19;20017;-75
2023/12/27 10:40:41;;;;;;;15.57;3.92;;;13.90;99.90;;;;;;7391671;19;20007;-75
2023/12/27 10:43:10;;;;;;;;;;;13.90;99.90;;;;;;7394371;19;20010;-76
2023/12/27 10:45:40;;;;;;;9.82;2.88;;;13.90;99.90;;;;;;7413620;19;19903;-77
2023/12/27 10:48:10;;;;;;;14.30;3.88;;;13.90;99.90;;;;;;7385859;19;20017;-75
2023/12/27 10:50:40;;;;;;;15.70;4.20;;;14.00;99.90;;;;;;7381963;19;20016;-74
2023/12/27 10:53:11;;;;;;;7.75;3.35;;;14.10;99.90;;;;;;7382934;19;20291;-75
2023/12/27 10:55:44;;;;;;;10.20;3.63;;;14.00;99.90;;;;;;7382723;19;20062;-75
2023/12/27 10:58:18;;;;;;;11.07;2.92;;;14.00;99.90;;;;;;7381662;19;20289;-75
2023/12/27 11:00:48;;;;;;;10.27;3.22;;;14.00;99.90;;;;;;7404122;19;20024;-75
2023/12/27 11:03:18;;;;;;;14.13;3.45;;;14.10;99.90;;;;;;7382056;19;20003;-75
2023/12/27 11:05:49;;;;;;;8.18;3.17;;;14.10;99.90;;;;;;7381920;19;20024;-75
2023/12/27 11:08:20;;;;;;;9.25;2.97;;;14.10;99.90;;;;;;7382931;19;20078;-74
2023/12/27 11:10:52;;;;;;;8.52;2.90;;;14.10;99.90;;;;;;7381554;19;20041;-75
2023/12/27 11:13:27;;;;;;;16.00;3.47;;;14.10;99.90;;;;;;7382698;19;20038;-75
2023/12/27 11:15:59;;;;;;;7.80;3.30;;;14.10;99.90;;;;;;7402463;19;20074;-75
2023/12/27 11:18:32;;;;;;;21.35;3.90;;;14.10;99.90;;;;;;7381315;19;20005;-75
2023/12/27 11:21:00;;;;;;;5.22;2.80;;;14.10;99.90;;;;;;7380310;19;20683;-75
2023/12/27 11:23:29;;;;;;;8.75;3.58;;;13.90;99.90;;;;;;7382478;19;20023;-74
2023/12/27 11:26:05;;;;;;;13.40;3.67;;;14.00;99.90;;;;;;7382173;19;20007;-75
2023/12/27 11:28:38;;;;;;;7.90;3.50;;;14.00;99.90;;;;;;7383090;19;20074;-75
2023/12/27 11:31:09;;;;;;;11.40;3.25;;;14.10;99.90;;;;;;7380195;19;20287;-75
2023/12/27 11:33:38;;;;;;;8.33;3.00;;;14.10;99.90;;;;;;7403676;19;20058;-75
2023/12/27 11:36:08;;;;;;;14.65;3.15;;;14.10;99.90;;;;;;7382974;19;20251;-74
2023/12/27 11:38:39;;;;;;;7.90;3.33;;;14.20;99.90;;;;;;7381469;19;20070;-75
2023/12/27 11:41:11;;;;;;;11.93;3.42;;;14.20;99.90;;;;;;7382269;19;20015;-76
2023/12/27 11:43:56;;;;;;;8.35;3.05;;;14.20;99.90;;;;;;7381259;19;20066;-74
2023/12/27 11:46:33;;;;;;;11.60;3.10;;;14.10;99.90;;;;;;7381647;19;20010;-75
2023/12/27 11:49:03;;;;;;;9.80;3.30;;;14.20;99.90;;;;;;7402668;19;20003;-76
2023/12/27 11:51:33;;;;;;;8.63;3.03;;;13.90;99.90;;;;;;7379727;19;20362;-76
2023/12/27 11:54:02;;;;;;;15.90;3.15;;;14.00;99.90;;;;;;7380729;19;20010;-76
2023/12/27 11:56:37;;;;;;;10.18;3.42;;;14.00;99.90;;;;;;7380789;19;20503;-75
2023/12/27 11:59:08;;;;;;;9.85;3.42;;;14.10;99.90;;;;;;7379737;19;20003;-76
2023/12/27 12:01:40;;;;;;;7.78;3.30;;;14.10;99.90;;;;;;7381032;19;20013;-75
2023/12/27 12:04:38;;;;;;;12.30;3.33;;;14.10;99.90;;;;;;7402427;19;20254;-75
2023/12/27 12:07:46;;;;;;;5.55;2.80;;;14.10;99.90;;;;;;7277810;19;2004538;-74
2023/12/27 12:10:25;;;;;;;7.28;2.92;;;14.20;99.90;;;;;;7381183;19;20007;-76
2023/12/27 12:12:58;;;;;;;15.98;2.80;;;14.20;99.90;;;;;;7400717;19;20074;-76
2023/12/27 12:15:31;;;;;;;9.98;4.65;;;14.20;99.90;;;;;;7378933;19;20007;-74
2023/12/27 12:18:01;;;;;;;9.73;2.92;;;14.30;99.90;;;;;;7379759;19;20383;-76
2023/12/27 12:20:33;;;;;;;5.65;3.03;;;14.30;99.90;;;;;;7378392;19;20062;-76
2023/12/27 12:23:04;;;;;;;8.45;3.33;;;14.30;99.90;;;;;;7381466;19;20248;-76
2023/12/27 12:25:33;;;;;;;9.13;3.30;;;14.40;99.90;;;;;;7380415;19;20018;-76
2023/12/27 12:28:05;;;;;;;14.18;2.70;;;14.40;99.90;;;;;;7401305;19;20401;-76
2023/12/27 12:30:35;;;;;;;6.95;2.80;;;14.40;99.90;;;;;;7379462;19;20305;-76
2023/12/27 12:33:05;;;;;;;9.20;2.78;;;14.50;99.90;;;;;;7380276;19;20245;-78
2023/12/27 12:35:36;;;;;;;5.03;2.47;;;14.50;99.90;;;;;;7381110;19;20077;-76
2023/12/27 12:38:06;;;;;;;4.65;2.55;;;14.50;99.90;;;;;;7388113;19;20007;-77
2023/12/27 12:40:36;;;;;;;7.95;2.60;;;14.50;99.90;;;;;;7387836;19;20019;-77
2023/12/27 12:43:07;;;;;;;5.93;1.98;;;14.50;99.90;;;;;;7404869;19;20010;-77
2023/12/27 12:45:36;;;;;;;;;;;14.50;99.90;;;;;;7385683;19;20002;-77
2023/12/27 12:48:05;;;;;;;4.50;1.88;;;14.50;99.90;;;;;;7381584;19;19963;-76
2023/12/27 12:50:35;;;;;;;4.05;1.75;;;14.50;99.90;;;;;;7378594;19;20006;-75
2023/12/27 12:53:16;;;;;;;2.72;1.90;;;14.40;99.20;;;;;;7378732;19;20011;-75
2023/12/27 12:55:47;;;;;;;3.35;1.75;;;14.40;99.90;;;;;;7377611;19;20023;-75